Time;durP1;ratioP1;P1;durP2;ratioP2;P2;SDS_P1;SDS_P2;PMS_P1;PMS_P2;Temp;Humidity;BMP_temperature;BMP_pressure;BME280_temperature;BME280_humidity;BME280_pressure;Samples;Min_cycle;Max_cycle;Signal;HPM_P1;HPM_P2
2022/12/20 00:00:54;;;;;;;34.55;19.00;;;;;;;2.99;74.72;97265.81;4958080;28;20054;-77
2022/12/20 00:03:21;;;;;;;37.17;19.38;;;;;;;3.00;74.18;97259.72;4958421;29;20043;-76
2022/12/20 00:05:49;;;;;;;32.90;19.27;;;;;;;2.98;74.80;97265.00;4964010;28;20051;-77
2022/12/20 00:08:17;;;;;;;33.63;19.65;;;;;;;2.98;74.59;97271.91;4979276;28;20110;-76
2022/12/20 00:10:45;;;;;;;31.52;18.70;;;;;;;2.99;74.59;97263.22;4978073;28;20054;-77
2022/12/20 00:13:13;;;;;;;40.20;19.90;;;;;;;3.00;74.58;97264.88;4961935;29;20053;-76
2022/12/20 00:15:41;;;;;;;41.08;21.48;;;;;;;3.01;74.38;97266.50;4959492;28;20051;-77
2022/12/20 00:18:10;;;;;;;37.97;21.05;;;;;;;3.00;74.22;97268.28;4958278;29;20047;-76
2022/12/20 00:20:37;;;;;;;38.00;20.27;;;;;;;2.99;74.61;97278.69;4958201;28;20047;-76
2022/12/20 00:23:05;;;;;;;38.20;19.20;;;;;;;2.99;74.42;97281.25;4958501;28;20066;-76
2022/12/20 00:25:33;;;;;;;37.03;20.52;;;;;;;3.00;74.54;97267.47;4958346;28;20054;-76
2022/12/20 00:28:02;;;;;;;35.55;20.83;;;;;;;2.98;74.11;97265.00;4958027;29;20082;-77
2022/12/20 00:30:29;;;;;;;37.58;19.20;;;;;;;3.01;74.15;97256.19;4958590;29;20058;-76
2022/12/20 00:32:57;;;;;;;34.85;20.02;;;;;;;3.02;74.24;97265.59;4976351;28;20058;-77
2022/12/20 00:35:26;;;;;;;36.90;19.92;;;;;;;3.03;74.09;97256.91;4980070;28;20053;-77
2022/12/20 00:37:53;;;;;;;34.90;19.25;;;;;;;3.02;74.05;97260.44;4979568;28;20058;-76
2022/12/20 00:40:21;;;;;;;36.13;20.20;;;;;;;3.00;74.12;97265.69;4968124;28;20055;-77
2022/12/20 00:42:50;;;;;;;33.78;19.20;;;;;;;3.01;74.59;97263.94;4961215;28;20061;-77
2022/12/20 00:45:17;;;;;;;39.00;21.90;;;;;;;3.04;74.39;97255.94;4959883;28;20057;-77
2022/12/20 00:47:46;;;;;;;32.10;18.77;;;;;;;3.06;74.56;97254.06;4958305;29;20152;-76
2022/12/20 00:50:15;;;;;;;34.22;18.73;;;;;;;3.06;74.06;97256.66;4958116;28;20188;-77
2022/12/20 00:52:44;;;;;;;32.83;19.05;;;;;;;3.07;74.45;97248.00;4957752;28;20051;-76
2022/12/20 00:55:12;;;;;;;31.42;18.58;;;;;;;3.08;74.42;97245.31;4957014;28;20051;-76
2022/12/20 00:57:42;;;;;;;33.35;20.38;;;;;;;3.09;74.20;97239.19;4957777;28;20051;-77
2022/12/20 01:00:11;;;;;;;36.15;19.55;;;;;;;3.10;74.08;97237.44;4957335;29;20489;-77
2022/12/20 01:02:39;;;;;;;36.90;19.25;;;;;;;3.09;74.12;97234.03;4957449;28;20490;-77
2022/12/20 01:05:07;;;;;;;34.22;18.77;;;;;;;3.11;74.23;97230.53;4957503;28;20418;-76
2022/12/20 01:07:34;;;;;;;33.33;18.48;;;;;;;3.14;74.42;97238.03;4957452;28;20047;-77
2022/12/20 01:10:04;;;;;;;36.55;20.20;;;;;;;3.16;74.53;97246.47;4957324;28;20055;-77
2022/12/20 01:12:31;;;;;;;33.92;18.83;;;;;;;3.16;74.07;97249.84;4957069;28;20055;-77
2022/12/20 01:14:59;;;;;;;33.70;18.95;;;;;;;3.19;74.18;97248.78;4957120;28;20055;-77
2022/12/20 01:17:26;;;;;;;35.25;19.20;;;;;;;3.19;73.96;97261.69;4956971;29;20051;-77
2022/12/20 01:19:54;;;;;;;31.73;19.05;;;;;;;3.21;74.16;97254.66;4956666;29;20043;-76
2022/12/20 01:22:22;;;;;;;33.70;18.40;;;;;;;3.24;74.58;97254.44;4956888;28;20051;-77
2022/12/20 01:24:49;;;;;;;30.92;18.02;;;;;;;3.27;74.41;97259.34;4956523;28;20420;-77
2022/12/20 01:27:18;;;;;;;31.23;18.65;;;;;;;3.29;74.40;97260.84;4956473;28;20490;-76
2022/12/20 01:29:46;;;;;;;31.50;17.75;;;;;;;3.32;74.46;97248.66;4956417;28;20058;-77
2022/12/20 01:32:14;;;;;;;31.42;19.88;;;;;;;3.34;74.06;97244.19;4956913;28;20051;-77
2022/12/20 01:34:42;;;;;;;33.33;18.73;;;;;;;3.35;74.13;97238.13;4956594;29;20047;-76
2022/12/20 01:37:10;;;;;;;31.20;18.17;;;;;;;3.37;74.09;97238.78;4956516;28;20134;-76
2022/12/20 01:39:37;;;;;;;32.78;17.98;;;;;;;3.36;74.09;97243.13;4956169;28;20069;-77
2022/12/20 01:42:05;;;;;;;32.50;18.20;;;;;;;3.37;74.17;97233.63;4956436;29;20078;-77
2022/12/20 01:44:54;;;;;;;33.42;19.17;;;;;;;3.39;74.16;97234.34;4956837;28;20058;-77
2022/12/20 01:47:23;;;;;;;26.50;16.50;;;;;;;3.38;74.05;97230.13;4956351;29;20047;-77
2022/12/20 01:49:53;;;;;;;30.13;17.98;;;;;;;3.40;74.02;97225.66;4955830;28;20524;-76
2022/12/20 01:52:28;;;;;;;31.95;16.98;;;;;;;3.40;74.19;97226.47;4956305;29;20118;-77
2022/12/20 01:55:04;;;;;;;29.95;17.63;;;;;;;3.40;74.22;97233.41;4954206;28;20127;-77
2022/12/20 01:57:38;;;;;;;32.85;18.10;;;;;;;3.40;74.67;97234.22;4954216;29;20047;-76
2022/12/20 02:00:10;;;;;;;27.73;17.15;;;;;;;3.41;74.12;97232.44;4954288;29;20061;-77
2022/12/20 02:02:39;;;;;;;31.25;17.58;;;;;;;3.45;74.18;97251.91;4954203;29;20055;-77
2022/12/20 02:05:07;;;;;;;28.52;17.40;;;;;;;3.49;74.09;97253.31;4962145;28;20413;-76
2022/12/20 02:07:38;;;;;;;31.38;17.92;;;;;;;3.49;73.91;97245.56;4972553;28;20053;-77
2022/12/20 02:10:07;;;;;;;30.63;19.25;;;;;;;3.48;73.74;97246.53;4974183;28;20054;-77
2022/12/20 02:12:40;;;;;;;33.45;19.38;;;;;;;3.45;73.78;97250.13;4958784;28;20053;-77
2022/12/20 02:15:33;;;;;;;33.17;18.33;;;;;;;3.44;73.51;97248.50;4975419;28;20065;-77
2022/12/20 02:18:11;;;;;;;31.98;17.60;;;;;;;3.42;73.75;97241.84;4975979;28;20058;-77
2022/12/20 02:21:06;;;;;;;34.90;19.95;;;;;;;3.39;73.40;97237.75;4974819;28;20050;-77
2022/12/20 02:23:57;;;;;;;32.45;17.40;;;;;;;3.37;73.78;97238.78;4975062;28;20078;-76
2022/12/20 02:26:48;;;;;;;28.15;17.33;;;;;;;3.35;73.86;97230.38;4972593;28;20049;-77
2022/12/20 02:29:24;;;;;;;30.58;16.80;;;;;;;3.30;74.52;97210.94;4975437;28;20089;-77
2022/12/20 02:32:01;;;;;;;27.08;15.80;;;;;;;3.29;74.88;97200.72;4974918;28;20086;-77
2022/12/20 02:34:32;;;;;;;27.85;17.30;;;;;;;3.27;74.97;97203.41;4975260;28;20051;-77
2022/12/20 02:37:00;;;;;;;27.05;15.70;;;;;;;3.30;74.81;97199.78;4975312;28;20050;-77
2022/12/20 02:39:30;;;;;;;28.25;14.95;;;;;;;3.31;74.79;97191.13;4974649;28;20053;-76
2022/12/20 02:42:04;;;;;;;25.60;14.95;;;;;;;3.35;75.45;97189.13;4974833;28;20073;-77
2022/12/20 02:47:26;;;;;;;24.75;14.18;;;;;;;3.38;75.26;97179.38;4977797;28;20051;-76
2022/12/20 02:49:55;;;;;;;26.63;14.55;;;;;;;3.38;75.30;97179.38;4993787;28;20110;-76
2022/12/20 02:52:29;;;;;;;25.33;15.73;;;;;;;3.39;75.37;97175.03;4993244;28;20118;-77
2022/12/20 02:54:59;;;;;;;28.83;15.05;;;;;;;3.42;75.53;97177.38;4979978;28;20146;-78
2022/12/20 02:57:35;;;;;;;24.85;14.57;;;;;;;3.44;75.52;97178.06;4976405;28;20050;-77
2022/12/20 03:00:06;;;;;;;25.98;16.08;;;;;;;3.44;75.10;97178.06;4975540;28;20042;-76
2022/12/20 03:05:20;;;;;;;25.38;15.18;;;;;;;3.44;75.02;97157.44;4973805;28;20058;-76
2022/12/20 03:07:47;;;;;;;23.35;14.23;;;;;;;3.43;74.90;97160.94;4977920;28;20058;-76
2022/12/20 03:10:15;;;;;;;25.92;14.80;;;;;;;3.42;74.75;97160.13;4992530;28;20137;-77
2022/12/20 03:12:43;;;;;;;24.70;14.55;;;;;;;3.41;75.12;97155.09;4993026;28;20115;-77
2022/12/20 05:39:57;;;;;;;23.92;12.95;;;;;;;3.66;75.36;97041.22;4960905;28;20058;-79
2022/12/20 05:42:25;;;;;;;22.13;12.80;;;;;;;3.70;75.41;97047.78;4959078;28;20055;-80
2022/12/20 05:44:55;;;;;;;22.08;14.10;;;;;;;3.74;74.93;97048.34;4958905;28;20074;-80
2022/12/20 05:47:23;;;;;;;20.58;12.60;;;;;;;3.77;75.00;97047.28;5407631;23;20069;-80
2022/12/20 06:30:44;;;;;;;23.80;13.73;;;;;;;3.88;74.37;97016.22;5618817;23;20034;-82
2022/12/20 06:33:14;;;;;;;21.67;12.85;;;;;;;3.90;74.11;97027.22;5338096;23;20065;-83
2022/12/20 06:35:41;;;;;;;23.92;14.00;;;;;;;3.92;74.51;97027.91;5033898;23;20126;-82
2022/12/20 06:38:09;;;;;;;25.83;13.25;;;;;;;3.93;74.44;97029.53;5025599;28;20045;-82
2022/12/20 06:40:37;;;;;;;22.38;13.07;;;;;;;3.96;74.22;97029.28;5026016;28;20054;-82
2022/12/20 06:43:04;;;;;;;18.48;12.05;;;;;;;3.99;74.14;97034.19;5026607;28;20133;-82
2022/12/20 06:45:32;;;;;;;21.05;11.75;;;;;;;4.01;74.14;97019.38;5026221;28;20046;-82
2022/12/20 06:48:09;;;;;;;20.33;11.82;;;;;;;4.03;74.05;97025.25;5025770;28;20050;-82
2022/12/20 06:50:37;;;;;;;19.35;12.57;;;;;;;4.06;74.28;97031.91;5026729;28;20057;-82
2022/12/20 06:53:05;;;;;;;21.95;13.05;;;;;;;4.07;74.03;97031.78;5025999;28;20049;-82
2022/12/20 06:55:32;;;;;;;23.25;13.15;;;;;;;4.09;74.05;97045.38;5027654;28;20474;-82
2022/12/20 06:58:00;;;;;;;18.92;12.20;;;;;;;4.12;74.01;97044.28;5026175;28;20049;-82
2022/12/20 07:00:28;;;;;;;22.52;12.88;;;;;;;4.13;73.70;97045.91;5026316;28;20149;-82
2022/12/20 07:02:55;;;;;;;18.58;12.20;;;;;;;4.16;73.88;97040.50;5025276;28;20046;-82
2022/12/20 07:05:25;;;;;;;20.55;12.20;;;;;;;4.19;73.73;97029.09;5025819;28;20046;-82
2022/12/20 07:07:52;;;;;;;17.38;11.00;;;;;;;4.23;73.62;97033.88;5025903;28;20042;-82
2022/12/20 07:10:20;;;;;;;18.55;10.85;;;;;;;4.28;73.87;97036.84;5026302;28;20488;-82
2022/12/20 07:12:48;;;;;;;17.98;11.43;;;;;;;4.32;73.64;97035.66;5025548;28;20049;-82
2022/12/20 07:15:17;;;;;;;19.42;12.20;;;;;;;4.36;73.70;97033.63;5027069;28;20053;-82
2022/12/20 07:17:45;;;;;;;21.15;13.73;;;;;;;4.39;73.72;97035.94;5025905;28;20049;-82
2022/12/20 07:20:13;;;;;;;26.25;13.90;;;;;;;4.42;73.33;97038.28;5026348;28;20122;-82
2022/12/20 07:22:42;;;;;;;22.08;12.57;;;;;;;4.45;73.14;97038.00;5025413;28;20104;-82
2022/12/20 07:25:11;;;;;;;23.73;13.45;;;;;;;4.48;73.16;97034.31;5025411;28;20129;-82
2022/12/20 07:27:38;;;;;;;18.83;10.80;;;;;;;4.51;73.14;97034.88;5025934;28;20056;-83
2022/12/20 07:30:07;;;;;;;21.42;12.40;;;;;;;4.54;73.46;97039.78;5025561;28;20076;-82
2022/12/20 07:32:35;;;;;;;19.45;11.88;;;;;;;4.57;73.06;97033.56;5027787;28;20050;-82
2022/12/20 07:35:03;;;;;;;19.88;11.10;;;;;;;4.61;73.12;97034.09;5027923;28;20076;-82
2022/12/20 07:37:31;;;;;;;17.95;11.70;;;;;;;4.64;73.28;97036.41;5026532;28;20046;-83
2022/12/20 07:40:00;;;;;;;18.35;11.00;;;;;;;4.65;73.46;97031.09;5026082;28;20416;-82
2022/12/20 07:42:28;;;;;;;17.23;10.82;;;;;;;4.68;72.99;97024.84;5026700;28;20045;-82
2022/12/20 07:45:05;;;;;;;19.02;11.15;;;;;;;4.70;73.42;97028.09;5026982;28;20466;-82
2022/12/20 07:47:34;;;;;;;17.65;10.40;;;;;;;4.73;73.06;97040.78;5026449;28;20052;-82
2022/12/20 07:50:02;;;;;;;15.80;9.77;;;;;;;4.75;72.90;97039.69;5026048;28;20488;-82
2022/12/20 07:52:34;;;;;;;14.73;9.75;;;;;;;4.78;73.08;97036.00;5028004;28;20062;-82
2022/12/20 07:55:06;;;;;;;16.70;10.93;;;;;;;4.79;73.01;97029.91;5027710;28;20110;-82
2022/12/20 07:57:36;;;;;;;;;;;;;;;4.85;73.01;97020.78;5026870;28;20069;-82
2022/12/20 08:00:06;;;;;;;14.82;9.60;;;;;;;4.86;72.97;97017.25;5027545;28;19921;-82
2022/12/20 08:02:38;;;;;;;15.35;9.18;;;;;;;4.89;73.05;97011.81;5027305;28;20048;-82
2022/12/20 08:05:07;;;;;;;;;;;;;;;4.93;72.70;97008.81;5031914;28;20104;-82
2022/12/20 08:07:38;;;;;;;13.90;9.32;;;;;;;4.94;72.83;97015.63;5031175;28;19963;-82
2022/12/20 08:10:11;;;;;;;15.13;9.93;;;;;;;4.98;72.35;97021.31;5031007;28;20081;-82
2022/12/20 08:12:39;;;;;;;;;;;;;;;5.01;72.12;97021.06;5030765;28;20057;-82
2022/12/20 08:15:08;;;;;;;13.60;8.85;;;;;;;4.99;72.10;97022.97;5031916;28;19928;-82
2022/12/20 08:17:36;;;;;;;14.55;10.18;;;;;;;4.98;72.24;97016.16;5031706;28;20046;-82
2022/12/20 08:20:05;;;;;;;19.45;12.00;;;;;;;5.01;72.30;97025.41;5031282;28;20074;-82
2022/12/20 08:22:33;;;;;;;18.85;10.05;;;;;;;5.04;72.17;97017.38;5031841;28;20142;-82
2022/12/20 08:25:01;;;;;;;19.02;9.90;;;;;;;5.07;72.44;97014.53;5031560;28;20140;-82
2022/12/20 08:27:30;;;;;;;16.58;8.77;;;;;;;5.10;72.05;97015.06;5031144;28;20057;-81
2022/12/20 08:29:58;;;;;;;14.00;8.55;;;;;;;5.14;72.18;97021.59;5032553;28;20060;-82
2022/12/20 08:32:25;;;;;;;12.07;8.68;;;;;;;5.18;71.76;97016.94;5032406;28;20053;-82
2022/12/20 08:34:54;;;;;;;12.10;7.65;;;;;;;5.20;71.86;97027.97;5032678;28;20464;-82
2022/12/20 08:37:21;;;;;;;15.40;9.70;;;;;;;5.24;71.83;97029.34;5031955;28;20061;-82
2022/12/20 08:39:49;;;;;;;12.70;7.78;;;;;;;5.27;72.10;97025.66;5032478;28;20521;-82
2022/12/20 08:42:17;;;;;;;13.10;8.27;;;;;;;5.29;71.84;97022.00;5032214;28;20046;-82
2022/12/20 08:44:46;;;;;;;15.45;9.63;;;;;;;5.33;71.75;97030.28;5032681;28;20054;-82
2022/12/20 08:47:14;;;;;;;14.05;8.63;;;;;;;5.35;72.24;97033.56;5032997;28;20042;-82
2022/12/20 08:49:42;;;;;;;11.55;8.43;;;;;;;5.36;72.09;97027.44;5033459;28;20117;-82
2022/12/20 08:52:15;;;;;;;11.20;7.57;;;;;;;5.41;71.77;97024.44;5032178;28;20099;-82
2022/12/20 08:54:42;;;;;;;15.55;9.98;;;;;;;5.43;72.06;97023.34;5032342;28;20054;-82
2022/12/20 08:57:10;;;;;;;14.63;8.98;;;;;;;5.47;72.01;97023.88;5032858;28;20085;-82
2022/12/20 08:59:38;;;;;;;10.65;7.38;;;;;;;5.49;71.71;97014.22;5033139;28;20057;-82
2022/12/20 09:02:07;;;;;;;10.85;7.25;;;;;;;5.52;71.54;97013.94;5032697;28;20060;-82
2022/12/20 09:04:35;;;;;;;14.20;8.75;;;;;;;5.55;71.77;97013.63;5039198;28;20030;-82
2022/12/20 09:07:03;;;;;;;12.77;8.90;;;;;;;5.56;71.66;97010.91;5040427;28;20098;-82
2022/12/20 09:09:31;;;;;;;13.10;8.50;;;;;;;5.60;71.16;97001.09;5033139;28;20054;-82
2022/12/20 09:11:59;;;;;;;12.50;8.13;;;;;;;5.62;71.45;96994.03;5032873;28;20053;-83
2022/12/20 09:14:26;;;;;;;14.93;8.75;;;;;;;5.64;71.10;96986.94;5033186;28;20049;-82
2022/12/20 09:16:54;;;;;;;13.63;9.02;;;;;;;5.65;70.84;96988.56;5039266;23;20047;-80
2022/12/20 09:19:23;;;;;;;11.98;7.90;;;;;;;5.67;71.40;96988.41;4995919;28;20106;-81
2022/12/20 09:21:51;;;;;;;14.50;9.02;;;;;;;5.68;71.18;96987.44;4996452;28;20057;-80
2022/12/20 09:24:19;;;;;;;13.50;8.32;;;;;;;5.69;70.78;96989.09;4995982;28;20050;-80
2022/12/20 09:26:47;;;;;;;13.43;8.13;;;;;;;5.70;71.06;96986.34;4996068;28;20086;-80
2022/12/20 09:29:19;;;;;;;14.27;8.77;;;;;;;5.70;71.01;96988.94;4996058;28;20070;-80
2022/12/20 09:31:56;;;;;;;12.80;8.63;;;;;;;5.71;70.75;96993.16;4997087;28;20082;-80
2022/12/20 09:34:26;;;;;;;12.90;8.50;;;;;;;5.71;71.06;96997.53;4997286;28;20081;-80
2022/12/20 09:36:54;;;;;;;12.95;8.70;;;;;;;5.72;70.91;96994.78;4997512;28;20054;-80
2022/12/20 09:39:22;;;;;;;14.55;9.57;;;;;;;5.73;70.91;96991.25;5010545;28;20050;-80
2022/12/20 09:41:49;;;;;;;14.77;10.10;;;;;;;5.73;70.67;96993.84;5017053;28;20070;-80
2022/12/20 09:44:23;;;;;;;13.60;9.65;;;;;;;5.72;70.76;96994.78;5003777;28;20054;-81
2022/12/20 09:46:54;;;;;;;14.00;8.75;;;;;;;5.73;70.53;96991.25;4997783;28;20146;-81
2022/12/20 09:49:27;;;;;;;14.32;9.18;;;;;;;5.72;70.75;96989.59;4996948;28;20500;-80
2022/12/20 09:52:11;;;;;;;;;;;;;;;5.75;70.77;96984.16;4997847;28;20122;-80
2022/12/20 09:54:45;;;;;;;13.88;9.25;;;;;;;5.75;70.48;96978.16;4996417;28;19922;-80
2022/12/20 09:57:23;;;;;;;13.82;8.95;;;;;;;5.75;70.52;96980.75;4997849;28;20125;-80
2022/12/20 09:59:51;;;;;;;11.75;8.40;;;;;;;5.76;70.48;96975.44;5018647;28;20069;-80
2022/12/20 10:02:22;;;;;;;15.20;8.18;;;;;;;5.79;70.52;96971.72;5018319;28;20112;-80
2022/12/20 10:05:19;;;;;;;15.05;8.95;;;;;;;5.82;70.30;96963.69;4997604;28;20492;-80
2022/12/20 10:08:01;;;;;;;12.00;8.30;;;;;;;5.85;70.12;96955.63;4995696;28;20046;-80
2022/12/20 10:10:54;;;;;;;13.52;9.10;;;;;;;5.86;70.15;96939.16;4995599;28;20058;-80
2022/12/20 10:13:30;;;;;;;;;;;;;;;5.90;70.00;96945.69;4995924;28;20046;-80
2022/12/20 10:16:32;;;;;;;10.57;7.82;;;;;;;5.92;70.23;96945.53;5005131;28;19929;-81
2022/12/20 10:19:33;;;;;;;11.10;8.13;;;;;;;5.96;70.08;96933.94;5007234;28;20108;-81
2022/12/20 10:22:16;;;;;;;13.60;7.97;;;;;;;6.02;69.91;96948.09;4997714;28;20073;-80
2022/12/20 10:24:50;;;;;;;12.65;8.38;;;;;;;6.03;69.98;96947.94;4998107;28;20100;-80
2022/12/20 10:27:34;;;;;;;13.15;8.10;;;;;;;6.08;69.71;96930.22;4995921;28;20109;-80
2022/12/20 10:30:11;;;;;;;12.57;8.20;;;;;;;6.13;69.53;96928.00;4995396;28;20077;-81
2022/12/20 10:32:39;;;;;;;13.10;9.15;;;;;;;6.21;69.76;96936.81;4994992;28;20296;-80
2022/12/20 10:35:22;;;;;;;13.30;8.73;;;;;;;6.23;69.64;96934.88;4994935;28;20042;-80
2022/12/20 10:37:59;;;;;;;;;;;;;;;6.28;69.34;96923.13;4996968;28;20054;-80
2022/12/20 10:40:39;;;;;;;11.25;7.75;;;;;;;6.29;69.38;96929.13;5014930;28;19944;-81
2022/12/20 10:43:28;;;;;;;13.88;8.40;;;;;;;6.31;69.46;96924.63;5014572;28;20046;-80
2022/12/20 10:45:59;;;;;;;12.48;8.60;;;;;;;6.34;68.93;96921.72;4998500;28;20122;-80
2022/12/20 10:48:33;;;;;;;14.95;9.07;;;;;;;6.36;69.11;96915.44;4995819;28;20050;-81
2022/12/20 10:51:13;;;;;;;12.25;8.73;;;;;;;6.40;68.80;96916.75;4995340;28;20471;-80
2022/12/20 10:53:54;;;;;;;16.23;8.65;;;;;;;6.51;68.55;96912.31;4995494;28;20054;-81
2022/12/20 10:56:27;;;;;;;16.73;10.35;;;;;;;6.64;68.43;96910.16;4994609;28;20066;-81
2022/12/20 10:58:58;;;;;;;14.75;9.60;;;;;;;6.76;67.93;96905.59;4994447;28;20046;-80
2022/12/20 11:01:37;;;;;;;13.75;9.35;;;;;;;6.85;67.55;96904.69;4994708;28;20065;-80
2022/12/20 11:04:31;;;;;;;13.93;9.80;;;;;;;6.94;67.72;96900.38;4994400;28;20054;-80
2022/12/20 11:07:21;;;;;;;14.00;9.77;;;;;;;6.99;67.16;96911.09;4994770;28;20085;-80
2022/12/20 11:09:56;;;;;;;12.73;9.77;;;;;;;6.96;66.71;96901.84;4994263;28;20218;-81
2022/12/20 11:12:27;;;;;;;14.73;10.15;;;;;;;6.92;66.75;96897.91;4994312;28;20057;-80
2022/12/20 11:15:09;;;;;;;13.80;9.65;;;;;;;6.88;66.48;96888.81;4994984;28;20105;-81
2022/12/20 11:17:48;;;;;;;15.00;9.98;;;;;;;6.85;66.89;96893.50;4993692;28;20058;-80
2022/12/20 11:20:36;;;;;;;14.52;9.75;;;;;;;6.82;66.61;96886.81;4994996;28;20077;-81
2022/12/20 11:23:21;;;;;;;16.88;10.65;;;;;;;6.78;66.64;96875.13;4994073;28;20057;-80
2022/12/20 11:26:06;;;;;;;17.38;11.27;;;;;;;6.74;66.77;96879.00;4994030;28;20137;-80
2022/12/20 11:28:57;;;;;;;17.40;12.20;;;;;;;6.66;66.73;96868.56;4994140;28;20057;-81
2022/12/20 11:31:34;;;;;;;20.00;12.32;;;;;;;6.63;67.05;96866.28;4994512;28;20058;-80
2022/12/20 11:34:13;;;;;;;19.63;13.18;;;;;;;6.58;67.18;96864.94;4994708;28;20416;-80
2022/12/20 11:37:05;;;;;;;17.63;11.27;;;;;;;6.55;67.28;96859.22;5005660;28;20038;-81
2022/12/20 11:40:05;;;;;;;22.13;12.55;;;;;;;6.52;67.15;96852.56;5007691;28;20054;-81
2022/12/20 11:42:53;;;;;;;20.95;13.30;;;;;;;6.48;67.13;96843.47;5005823;28;20046;-80
2022/12/20 11:45:34;;;;;;;24.95;14.02;;;;;;;6.44;67.50;96844.72;4996211;28;20047;-81
2022/12/20 11:48:29;;;;;;;23.83;13.40;;;;;;;6.40;67.28;96833.03;4994307;28;20475;-80
2022/12/20 11:51:08;;;;;;;30.20;15.20;;;;;;;6.37;67.46;96835.94;4996096;28;20046;-80
2022/12/20 11:53:50;;;;;;;21.92;13.10;;;;;;;6.34;67.85;96824.09;4995062;28;20071;-80
2022/12/20 11:56:22;;;;;;;27.48;13.82;;;;;;;6.34;68.05;96833.63;4994697;28;20054;-81
2022/12/20 11:59:07;;;;;;;;;;;;;;;6.35;68.06;96835.25;4994157;28;20054;-80
2022/12/20 12:01:50;;;;;;;20.27;12.88;;;;;;;6.35;68.03;96824.91;4994611;28;19926;-81
2022/12/20 12:04:27;;;;;;;20.25;13.02;;;;;;;6.33;67.80;96826.81;4996400;28;20072;-81
2022/12/20 12:07:03;;;;;;;16.75;11.32;;;;;;;6.32;67.92;96820.84;4994217;28;20055;-80
2022/12/20 12:09:41;;;;;;;20.52;12.38;;;;;;;6.33;68.29;96826.81;4994320;28;20058;-81
2022/12/20 12:12:22;;;;;;;20.02;13.25;;;;;;;6.34;68.42;96824.09;4994421;28;20093;-80
2022/12/20 12:15:01;;;;;;;20.73;12.77;;;;;;;6.32;68.29;96818.25;4994345;28;20137;-81
2022/12/20 12:17:42;;;;;;;21.40;13.20;;;;;;;6.34;68.05;96807.72;4993479;28;20046;-80
2022/12/20 12:20:25;;;;;;;20.17;12.85;;;;;;;6.33;67.98;96800.91;4994205;28;20061;-80
2022/12/20 12:23:04;;;;;;;19.27;12.77;;;;;;;6.33;68.32;96798.31;4994129;28;20489;-80
2022/12/20 12:25:39;;;;;;;20.27;12.50;;;;;;;6.31;68.25;96803.66;4993787;28;20047;-81
2022/12/20 12:28:12;;;;;;;17.73;11.90;;;;;;;6.31;68.44;96798.47;4993732;28;20057;-81
2022/12/20 12:30:51;;;;;;;22.23;14.13;;;;;;;6.34;68.31;96787.00;4994187;28;20054;-81
2022/12/20 12:33:31;;;;;;;18.05;12.35;;;;;;;6.33;68.22;96787.97;4993774;28;20133;-80
2022/12/20 12:37:02;;;;;;;19.02;13.23;;;;;;;6.35;68.32;96804.97;4995013;28;20058;-81
2022/12/20 12:40:09;;;;;;;21.83;13.43;;;;;;;6.37;68.28;96784.91;4934306;29;20059;-81
2022/12/20 12:43:11;;;;;;;21.98;13.68;;;;;;;6.36;68.15;96779.88;5015939;28;20049;-80
2022/12/20 12:45:49;;;;;;;19.38;12.75;;;;;;;6.34;68.49;96781.81;5007217;28;20047;-81
2022/12/20 12:48:25;;;;;;;17.95;12.75;;;;;;;6.35;68.34;96783.44;4993987;28;20492;-81
2022/12/20 12:51:10;;;;;;;20.30;13.18;;;;;;;6.37;68.23;96778.94;4995808;28;20062;-81
2022/12/20 12:53:45;;;;;;;19.65;13.88;;;;;;;6.35;68.13;96773.09;4997949;28;20058;-81
2022/12/20 12:56:40;;;;;;;25.45;15.50;;;;;;;6.35;68.29;96773.09;4997295;28;20101;-81
2022/12/20 12:59:44;;;;;;;18.60;12.90;;;;;;;6.37;68.42;96782.31;4996970;28;20092;-81
2022/12/20 13:02:51;;;;;;;20.70;13.27;;;;;;;6.41;68.20;96772.50;4997550;28;20500;-80
2022/12/20 13:05:54;;;;;;;;;;;;;;;;;;;;;
2022/12/20 13:08:50;;;;;;;17.98;12.73;;;;;;;6.45;68.46;96784.19;5009833;28;20054;-81
2022/12/20 13:11:34;;;;;;;17.88;11.88;;;;;;;6.45;68.41;96779.00;5011885;28;20058;-81
2022/12/20 13:14:15;;;;;;;19.80;13.07;;;;;;;6.46;68.14;96770.25;5011703;28;20055;-80
2022/12/20 13:16:51;;;;;;;18.60;12.52;;;;;;;6.49;68.17;96774.31;5011749;28;20053;-81
2022/12/20 13:19:48;;;;;;;21.70;13.43;;;;;;;6.50;68.30;96763.78;5005179;28;20054;-81
2022/12/20 13:22:26;;;;;;;22.02;14.38;;;;;;;6.50;67.75;96752.63;4998985;28;20420;-80
2022/12/20 13:25:24;;;;;;;19.50;14.05;;;;;;;6.50;67.99;96760.41;4998745;28;20046;-81
2022/12/20 13:28:31;;;;;;;24.67;15.25;;;;;;;6.50;68.26;96763.00;4998392;28;20051;-81
2022/12/20 13:31:31;;;;;;;24.13;14.45;;;;;;;6.49;68.53;96761.34;4998405;28;20050;-81
2022/12/20 13:34:02;;;;;;;20.17;14.48;;;;;;;6.47;68.26;96751.16;5018911;28;20053;-81
2022/12/20 13:36:42;;;;;;;18.63;12.55;;;;;;;6.46;68.18;96744.34;5016969;28;20050;-81
2022/12/20 13:39:34;;;;;;;23.25;14.00;;;;;;;6.47;68.19;96756.34;5004558;28;20485;-81
2022/12/20 13:42:30;;;;;;;20.17;13.02;;;;;;;6.47;68.39;96756.34;5008905;28;20050;-81
2022/12/20 13:45:15;;;;;;;19.77;13.68;;;;;;;6.47;68.39;96751.16;5003314;28;20046;-81
2022/12/20 13:47:56;;;;;;;22.38;15.55;;;;;;;6.48;68.20;96746.78;4996848;28;20109;-81
2022/12/20 13:50:59;;;;;;;24.55;14.40;;;;;;;6.48;68.51;96739.81;4996295;28;20515;-81
2022/12/20 13:53:30;;;;;;;23.13;14.90;;;;;;;6.48;68.42;96757.94;4991573;28;20057;-82
2022/12/20 13:56:34;;;;;;;18.02;13.18;;;;;;;6.49;68.24;96753.56;4996879;28;20070;-81
2022/12/20 13:59:18;;;;;;;23.13;13.60;;;;;;;6.47;68.10;96756.34;4996713;28;20054;-81
2022/12/20 14:01:55;;;;;;;;;;;;;;;6.48;68.38;96762.34;4996143;28;20062;-81
2022/12/20 14:04:43;;;;;;;22.33;13.82;;;;;;;6.46;68.27;96769.44;4996356;28;19921;-81
2022/12/20 14:07:32;;;;;;;22.98;13.00;;;;;;;6.44;68.57;96766.19;4996539;28;20061;-81
2022/12/20 14:10:19;;;;;;;;;;;;;;;6.44;68.53;96772.16;4996941;28;20050;-81
2022/12/20 14:12:54;;;;;;;17.70;13.05;;;;;;;6.41;68.39;96762.13;4996208;28;20033;-81
2022/12/20 14:15:37;;;;;;;20.35;13.57;;;;;;;6.40;69.03;96765.66;4995790;28;20046;-81
2022/12/20 14:18:28;;;;;;;21.35;13.77;;;;;;;6.39;68.85;96770.03;4997415;28;20053;-81
2022/12/20 14:21:10;;;;;;;20.43;13.57;;;;;;;6.39;68.98;96758.88;4999758;28;20118;-81
2022/12/20 14:23:52;;;;;;;21.48;12.80;;;;;;;6.36;69.04;96753.97;5003224;28;20046;-81
2022/12/20 14:26:30;;;;;;;22.33;13.30;;;;;;;6.36;68.99;96748.78;5014793;28;20086;-81
2022/12/20 14:29:05;;;;;;;22.20;14.30;;;;;;;6.36;68.74;96741.00;5012871;28;20054;-81
2022/12/20 14:31:44;;;;;;;24.25;15.05;;;;;;;6.36;68.99;96726.31;4998975;28;20050;-81
2022/12/20 14:34:21;;;;;;;20.42;13.25;;;;;;;6.35;68.74;96726.44;4997035;28;20145;-81
2022/12/20 14:37:33;;;;;;;24.88;14.85;;;;;;;6.32;68.83;96722.38;4996247;28;20074;-81
2022/12/20 14:40:22;;;;;;;22.00;15.05;;;;;;;6.29;68.66;96703.72;4996555;28;20050;-81
2022/12/20 14:42:58;;;;;;;25.48;16.33;;;;;;;6.26;69.17;96704.06;4995680;28;20043;-81
2022/12/20 14:45:28;;;;;;;22.35;15.65;;;;;;;6.24;68.99;96711.16;4996622;28;20043;-81
2022/12/20 14:48:08;;;;;;;22.80;14.27;;;;;;;6.21;68.77;96714.88;4995530;28;20064;-81
2022/12/20 14:50:56;;;;;;;24.80;16.85;;;;;;;6.20;69.03;96708.03;4995502;28;20054;-80
2022/12/20 14:53:30;;;;;;;21.67;15.05;;;;;;;6.19;69.07;96712.41;4996743;28;20050;-81
2022/12/20 14:56:03;;;;;;;25.77;15.20;;;;;;;6.20;69.16;96713.22;4995344;28;20104;-81
2022/12/20 14:58:37;;;;;;;22.92;15.77;;;;;;;6.19;69.28;96711.63;4995303;28;20054;-81
2022/12/20 15:01:21;;;;;;;19.88;14.90;;;;;;;6.19;69.09;96717.59;4995329;28;20119;-81
2022/12/20 15:04:06;;;;;;;;;;;;;;;6.18;69.21;96710.78;4995988;28;20076;-81
2022/12/20 15:06:51;;;;;;;22.60;16.88;;;;;;;6.15;69.08;96720.66;4994904;28;19928;-81
2022/12/20 15:09:22;;;;;;;21.90;14.90;;;;;;;6.10;69.17;96708.16;4995506;28;20050;-80
2022/12/20 15:11:58;;;;;;;24.10;14.95;;;;;;;6.08;69.21;96715.25;4994792;28;20058;-81
2022/12/20 15:14:37;;;;;;;19.58;14.70;;;;;;;6.09;69.68;96705.72;4994507;28;20145;-81
2022/12/20 15:17:14;;;;;;;19.08;14.10;;;;;;;6.10;69.70;96702.97;5051819;23;20081;-82
2022/12/20 15:19:44;;;;;;;22.23;14.50;;;;;;;6.09;69.59;96709.09;5013961;28;20050;-82
2022/12/20 15:22:16;;;;;;;23.42;14.60;;;;;;;6.10;69.45;96708.16;5014128;28;20065;-83